sensor_id;sensor_type;location;lat;lon;timestamp;P1;durP1;ratioP1;P2;durP2;ratioP2
45642;SDS011;31358;46.008;11.144;2022-10-16T00:00:41;53.17;;;29.85;;
45642;SDS011;31358;46.008;11.144;2022-10-16T00:03:07;48.35;;;29.10;;
45642;SDS011;31358;46.008;11.144;2022-10-16T00:05:38;51.10;;;28.00;;
45642;SDS011;31358;46.008;11.144;2022-10-16T00:08:07;54.58;;;29.02;;
45642;SDS011;31358;46.008;11.144;2022-10-16T00:10:34;49.28;;;27.58;;
45642;SDS011;31358;46.008;11.144;2022-10-16T00:13:00;49.72;;;28.63;;
45642;SDS011;31358;46.008;11.144;2022-10-16T00:15:25;53.65;;;31.30;;
45642;SDS011;31358;46.008;11.144;2022-10-16T00:17:51;51.15;;;28.27;;
45642;SDS011;31358;46.008;11.144;2022-10-16T00:20:17;52.05;;;31.77;;
45642;SDS011;31358;46.008;11.144;2022-10-16T00:22:42;52.17;;;28.83;;
45642;SDS011;31358;46.008;11.144;2022-10-16T00:25:08;50.92;;;29.27;;
45642;SDS011;31358;46.008;11.144;2022-10-16T00:27:34;47.63;;;27.13;;
45642;SDS011;31358;46.008;11.144;2022-10-16T00:30:00;49.25;;;28.95;;
45642;SDS011;31358;46.008;11.144;2022-10-16T00:32:25;48.33;;;28.40;;
45642;SDS011;31358;46.008;11.144;2022-10-16T00:34:51;49.67;;;29.70;;
45642;SDS011;31358;46.008;11.144;2022-10-16T00:37:19;55.28;;;31.67;;
45642;SDS011;31358;46.008;11.144;2022-10-16T00:39:45;49.70;;;28.25;;
45642;SDS011;31358;46.008;11.144;2022-10-16T00:42:14;54.42;;;29.30;;
45642;SDS011;31358;46.008;11.144;2022-10-16T00:44:51;52.03;;;31.90;;
45642;SDS011;31358;46.008;11.144;2022-10-16T00:47:19;48.38;;;28.40;;
45642;SDS011;31358;46.008;11.144;2022-10-16T00:50:13;52.83;;;30.23;;
45642;SDS011;31358;46.008;11.144;2022-10-16T00:52:47;49.92;;;28.33;;
45642;SDS011;31358;46.008;11.144;2022-10-16T00:55:14;53.22;;;27.85;;
45642;SDS011;31358;46.008;11.144;2022-10-16T00:57:41;56.40;;;31.52;;
45642;SDS011;31358;46.008;11.144;2022-10-16T01:00:09;53.05;;;29.38;;
45642;SDS011;31358;46.008;11.144;2022-10-16T01:02:37;55.90;;;30.75;;
45642;SDS011;31358;46.008;11.144;2022-10-16T01:05:02;49.50;;;30.58;;
45642;SDS011;31358;46.008;11.144;2022-10-16T01:13:07;56.42;;;29.80;;
45642;SDS011;31358;46.008;11.144;2022-10-16T01:15:34;57.28;;;28.63;;
45642;SDS011;31358;46.008;11.144;2022-10-16T01:21:05;52.33;;;29.30;;
45642;SDS011;31358;46.008;11.144;2022-10-16T01:32:10;74.40;;;35.67;;
45642;SDS011;31358;46.008;11.144;2022-10-16T01:37:35;64.55;;;34.88;;
45642;SDS011;31358;46.008;11.144;2022-10-16T01:40:15;75.80;;;40.13;;
45642;SDS011;31358;46.008;11.144;2022-10-16T01:42:48;61.88;;;37.00;;
45642;SDS011;31358;46.008;11.144;2022-10-16T01:45:18;58.88;;;33.78;;
45642;SDS011;31358;46.008;11.144;2022-10-16T01:47:45;55.10;;;31.65;;
45642;SDS011;31358;46.008;11.144;2022-10-16T01:50:12;50.10;;;27.75;;
45642;SDS011;31358;46.008;11.144;2022-10-16T01:52:41;48.55;;;28.88;;
45642;SDS011;31358;46.008;11.144;2022-10-16T01:55:10;50.05;;;26.95;;
45642;SDS011;31358;46.008;11.144;2022-10-16T01:57:40;50.08;;;28.55;;
45642;SDS011;31358;46.008;11.144;2022-10-16T02:00:12;52.63;;;29.08;;
45642;SDS011;31358;46.008;11.144;2022-10-16T02:02:40;46.75;;;26.10;;
45642;SDS011;31358;46.008;11.144;2022-10-16T02:05:15;52.17;;;30.05;;
45642;SDS011;31358;46.008;11.144;2022-10-16T02:07:43;53.08;;;29.67;;
45642;SDS011;31358;46.008;11.144;2022-10-16T02:10:09;54.85;;;31.00;;
45642;SDS011;31358;46.008;11.144;2022-10-16T02:12:36;59.70;;;31.23;;
45642;SDS011;31358;46.008;11.144;2022-10-16T02:15:05;52.50;;;30.63;;
45642;SDS011;31358;46.008;11.144;2022-10-16T02:17:31;55.45;;;32.00;;
45642;SDS011;31358;46.008;11.144;2022-10-16T02:19:57;58.38;;;34.10;;
45642;SDS011;31358;46.008;11.144;2022-10-16T02:22:28;61.08;;;31.13;;
45642;SDS011;31358;46.008;11.144;2022-10-16T02:24:59;53.45;;;31.13;;
45642;SDS011;31358;46.008;11.144;2022-10-16T02:30:21;57.08;;;33.05;;
45642;SDS011;31358;46.008;11.144;2022-10-16T02:32:48;49.80;;;28.35;;
45642;SDS011;31358;46.008;11.144;2022-10-16T02:35:15;50.63;;;28.90;;
45642;SDS011;31358;46.008;11.144;2022-10-16T02:37:43;50.80;;;29.30;;
45642;SDS011;31358;46.008;11.144;2022-10-16T02:40:11;54.97;;;32.85;;
45642;SDS011;31358;46.008;11.144;2022-10-16T02:42:38;64.47;;;33.42;;
45642;SDS011;31358;46.008;11.144;2022-10-16T02:45:05;57.55;;;30.88;;
45642;SDS011;31358;46.008;11.144;2022-10-16T02:47:33;58.03;;;31.92;;
45642;SDS011;31358;46.008;11.144;2022-10-16T02:49:58;62.72;;;34.40;;
45642;SDS011;31358;46.008;11.144;2022-10-16T02:52:24;68.05;;;37.47;;
45642;SDS011;31358;46.008;11.144;2022-10-16T02:54:50;64.93;;;32.97;;
45642;SDS011;31358;46.008;11.144;2022-10-16T02:57:16;59.25;;;31.02;;
45642;SDS011;31358;46.008;11.144;2022-10-16T02:59:43;47.28;;;27.20;;
45642;SDS011;31358;46.008;11.144;2022-10-16T03:02:08;46.40;;;26.23;;
45642;SDS011;31358;46.008;11.144;2022-10-16T03:04:34;48.47;;;25.75;;
45642;SDS011;31358;46.008;11.144;2022-10-16T03:07:00;49.55;;;27.50;;
45642;SDS011;31358;46.008;11.144;2022-10-16T03:09:26;54.50;;;28.85;;
45642;SDS011;31358;46.008;11.144;2022-10-16T03:11:51;47.80;;;26.88;;
45642;SDS011;31358;46.008;11.144;2022-10-16T03:14:17;47.30;;;27.25;;
45642;SDS011;31358;46.008;11.144;2022-10-16T03:16:42;49.97;;;27.98;;
45642;SDS011;31358;46.008;11.144;2022-10-16T03:19:08;54.83;;;30.20;;
45642;SDS011;31358;46.008;11.144;2022-10-16T03:21:34;49.67;;;29.10;;
45642;SDS011;31358;46.008;11.144;2022-10-16T03:23:59;45.65;;;24.50;;
45642;SDS011;31358;46.008;11.144;2022-10-16T03:26:25;49.03;;;27.05;;
45642;SDS011;31358;46.008;11.144;2022-10-16T03:28:51;58.63;;;29.65;;
45642;SDS011;31358;46.008;11.144;2022-10-16T03:31:16;51.03;;;27.83;;
45642;SDS011;31358;46.008;11.144;2022-10-16T03:33:42;48.78;;;28.95;;
45642;SDS011;31358;46.008;11.144;2022-10-16T03:36:07;48.30;;;28.27;;
45642;SDS011;31358;46.008;11.144;2022-10-16T03:38:33;49.72;;;28.40;;
45642;SDS011;31358;46.008;11.144;2022-10-16T03:40:59;57.28;;;29.58;;
45642;SDS011;31358;46.008;11.144;2022-10-16T03:43:25;51.88;;;28.70;;
45642;SDS011;31358;46.008;11.144;2022-10-16T03:45:50;49.78;;;27.98;;
45642;SDS011;31358;46.008;11.144;2022-10-16T03:48:17;48.47;;;27.92;;
45642;SDS011;31358;46.008;11.144;2022-10-16T03:50:43;50.53;;;29.10;;
45642;SDS011;31358;46.008;11.144;2022-10-16T03:53:09;54.63;;;29.63;;
45642;SDS011;31358;46.008;11.144;2022-10-16T03:55:34;50.40;;;27.90;;
45642;SDS011;31358;46.008;11.144;2022-10-16T03:58:00;50.22;;;28.48;;
45642;SDS011;31358;46.008;11.144;2022-10-16T04:00:26;54.58;;;28.88;;
45642;SDS011;31358;46.008;11.144;2022-10-16T04:02:52;47.13;;;26.83;;
45642;SDS011;31358;46.008;11.144;2022-10-16T04:05:18;53.03;;;27.65;;
45642;SDS011;31358;46.008;11.144;2022-10-16T04:07:43;51.92;;;28.73;;
45642;SDS011;31358;46.008;11.144;2022-10-16T04:10:09;50.95;;;27.25;;
45642;SDS011;31358;46.008;11.144;2022-10-16T04:12:35;47.90;;;26.75;;
45642;SDS011;31358;46.008;11.144;2022-10-16T04:15:00;51.28;;;29.00;;
45642;SDS011;31358;46.008;11.144;2022-10-16T04:17:26;57.63;;;30.27;;
45642;SDS011;31358;46.008;11.144;2022-10-16T04:19:52;55.15;;;30.60;;
45642;SDS011;31358;46.008;11.144;2022-10-16T04:22:18;59.20;;;32.00;;
45642;SDS011;31358;46.008;11.144;2022-10-16T04:24:43;52.60;;;30.05;;
45642;SDS011;31358;46.008;11.144;2022-10-16T04:27:09;57.38;;;32.20;;
45642;SDS011;31358;46.008;11.144;2022-10-16T04:29:35;63.97;;;30.98;;
45642;SDS011;31358;46.008;11.144;2022-10-16T04:32:00;48.60;;;27.33;;
45642;SDS011;31358;46.008;11.144;2022-10-16T04:34:26;52.67;;;27.52;;
45642;SDS011;31358;46.008;11.144;2022-10-16T04:36:51;52.13;;;29.40;;
45642;SDS011;31358;46.008;11.144;2022-10-16T04:39:17;53.47;;;29.40;;
45642;SDS011;31358;46.008;11.144;2022-10-16T04:41:43;48.92;;;28.13;;
45642;SDS011;31358;46.008;11.144;2022-10-16T04:44:08;47.70;;;27.95;;
45642;SDS011;31358;46.008;11.144;2022-10-16T04:46:34;49.40;;;27.67;;
45642;SDS011;31358;46.008;11.144;2022-10-16T04:49:00;49.85;;;27.27;;
45642;SDS011;31358;46.008;11.144;2022-10-16T04:51:26;51.83;;;29.50;;
45642;SDS011;31358;46.008;11.144;2022-10-16T04:53:52;55.00;;;28.08;;
45642;SDS011;31358;46.008;11.144;2022-10-16T04:56:19;54.92;;;31.38;;
45642;SDS011;31358;46.008;11.144;2022-10-16T04:58:46;60.17;;;30.92;;
45642;SDS011;31358;46.008;11.144;2022-10-16T05:01:11;55.65;;;29.33;;
45642;SDS011;31358;46.008;11.144;2022-10-16T05:03:37;55.60;;;30.95;;
45642;SDS011;31358;46.008;11.144;2022-10-16T05:06:04;53.33;;;29.05;;
45642;SDS011;31358;46.008;11.144;2022-10-16T05:08:30;56.03;;;28.92;;
45642;SDS011;31358;46.008;11.144;2022-10-16T05:10:56;72.72;;;38.25;;
45642;SDS011;31358;46.008;11.144;2022-10-16T05:13:22;58.78;;;31.05;;
45642;SDS011;31358;46.008;11.144;2022-10-16T05:15:48;63.97;;;31.92;;
45642;SDS011;31358;46.008;11.144;2022-10-16T05:18:14;58.60;;;32.78;;
45642;SDS011;31358;46.008;11.144;2022-10-16T05:20:41;56.72;;;31.33;;
45642;SDS011;31358;46.008;11.144;2022-10-16T05:23:07;57.17;;;31.75;;
45642;SDS011;31358;46.008;11.144;2022-10-16T05:25:35;52.97;;;30.52;;
45642;SDS011;31358;46.008;11.144;2022-10-16T05:28:01;61.10;;;32.58;;
45642;SDS011;31358;46.008;11.144;2022-10-16T05:30:27;58.38;;;32.97;;
45642;SDS011;31358;46.008;11.144;2022-10-16T05:32:52;60.42;;;32.65;;
45642;SDS011;31358;46.008;11.144;2022-10-16T05:35:18;61.72;;;31.88;;
45642;SDS011;31358;46.008;11.144;2022-10-16T05:37:45;66.72;;;34.60;;
45642;SDS011;31358;46.008;11.144;2022-10-16T05:40:11;67.60;;;35.85;;
45642;SDS011;31358;46.008;11.144;2022-10-16T05:42:38;62.00;;;34.85;;
45642;SDS011;31358;46.008;11.144;2022-10-16T05:45:04;60.22;;;33.45;;
45642;SDS011;31358;46.008;11.144;2022-10-16T05:47:31;65.72;;;36.75;;
45642;SDS011;31358;46.008;11.144;2022-10-16T05:49:57;63.58;;;35.40;;
45642;SDS011;31358;46.008;11.144;2022-10-16T05:52:22;59.83;;;34.13;;
45642;SDS011;31358;46.008;11.144;2022-10-16T05:54:48;72.38;;;37.85;;
45642;SDS011;31358;46.008;11.144;2022-10-16T05:57:14;63.35;;;35.28;;
45642;SDS011;31358;46.008;11.144;2022-10-16T05:59:40;75.32;;;41.17;;
45642;SDS011;31358;46.008;11.144;2022-10-16T06:02:07;68.25;;;37.67;;
45642;SDS011;31358;46.008;11.144;2022-10-16T06:04:37;71.72;;;38.97;;
45642;SDS011;31358;46.008;11.144;2022-10-16T06:07:02;67.65;;;39.88;;
45642;SDS011;31358;46.008;11.144;2022-10-16T06:09:28;80.22;;;40.22;;
45642;SDS011;31358;46.008;11.144;2022-10-16T06:11:54;68.18;;;37.47;;
45642;SDS011;31358;46.008;11.144;2022-10-16T06:14:19;65.55;;;38.28;;
45642;SDS011;31358;46.008;11.144;2022-10-16T06:16:45;68.05;;;38.60;;
45642;SDS011;31358;46.008;11.144;2022-10-16T06:19:11;67.97;;;38.50;;
45642;SDS011;31358;46.008;11.144;2022-10-16T06:21:36;67.88;;;37.90;;
45642;SDS011;31358;46.008;11.144;2022-10-16T06:24:02;71.25;;;37.45;;
45642;SDS011;31358;46.008;11.144;2022-10-16T06:26:28;67.50;;;36.97;;
45642;SDS011;31358;46.008;11.144;2022-10-16T06:28:56;63.95;;;36.75;;
45642;SDS011;31358;46.008;11.144;2022-10-16T06:31:22;70.38;;;39.10;;
45642;SDS011;31358;46.008;11.144;2022-10-16T06:33:52;65.65;;;40.00;;
45642;SDS011;31358;46.008;11.144;2022-10-16T06:36:18;73.22;;;40.15;;
45642;SDS011;31358;46.008;11.144;2022-10-16T06:38:45;67.10;;;40.38;;
45642;SDS011;31358;46.008;11.144;2022-10-16T06:41:12;65.28;;;36.42;;
45642;SDS011;31358;46.008;11.144;2022-10-16T06:43:39;70.93;;;39.05;;
45642;SDS011;31358;46.008;11.144;2022-10-16T06:46:06;72.05;;;39.47;;
45642;SDS011;31358;46.008;11.144;2022-10-16T06:48:32;64.88;;;34.20;;
45642;SDS011;31358;46.008;11.144;2022-10-16T06:53:33;60.95;;;35.03;;
45642;SDS011;31358;46.008;11.144;2022-10-16T06:56:07;68.55;;;39.80;;
45642;SDS011;31358;46.008;11.144;2022-10-16T06:58:40;65.90;;;35.00;;
45642;SDS011;31358;46.008;11.144;2022-10-16T07:01:06;65.38;;;35.00;;
45642;SDS011;31358;46.008;11.144;2022-10-16T07:03:33;57.83;;;33.58;;
45642;SDS011;31358;46.008;11.144;2022-10-16T07:06:02;65.38;;;36.47;;
45642;SDS011;31358;46.008;11.144;2022-10-16T07:08:32;60.00;;;31.73;;
45642;SDS011;31358;46.008;11.144;2022-10-16T07:11:03;56.72;;;33.20;;
45642;SDS011;31358;46.008;11.144;2022-10-16T07:13:34;57.15;;;34.13;;
45642;SDS011;31358;46.008;11.144;2022-10-16T07:16:04;56.75;;;33.17;;
45642;SDS011;31358;46.008;11.144;2022-10-16T07:18:34;56.28;;;33.53;;
45642;SDS011;31358;46.008;11.144;2022-10-16T07:21:09;53.65;;;33.30;;
45642;SDS011;31358;46.008;11.144;2022-10-16T07:23:36;60.60;;;35.35;;
45642;SDS011;31358;46.008;11.144;2022-10-16T07:26:03;59.65;;;33.83;;
45642;SDS011;31358;46.008;11.144;2022-10-16T07:28:29;55.08;;;32.25;;
45642;SDS011;31358;46.008;11.144;2022-10-16T07:30:59;57.88;;;35.40;;
45642;SDS011;31358;46.008;11.144;2022-10-16T07:33:30;56.85;;;34.47;;
45642;SDS011;31358;46.008;11.144;2022-10-16T07:35:56;57.45;;;33.47;;
45642;SDS011;31358;46.008;11.144;2022-10-16T07:38:21;54.17;;;31.35;;
45642;SDS011;31358;46.008;11.144;2022-10-16T07:40:48;68.68;;;35.00;;
45642;SDS011;31358;46.008;11.144;2022-10-16T07:43:20;57.63;;;33.33;;
45642;SDS011;31358;46.008;11.144;2022-10-16T07:45:49;55.70;;;34.15;;
45642;SDS011;31358;46.008;11.144;2022-10-16T07:48:16;67.15;;;38.97;;
45642;SDS011;31358;46.008;11.144;2022-10-16T07:50:42;61.80;;;36.78;;
45642;SDS011;31358;46.008;11.144;2022-10-16T07:53:08;61.50;;;36.08;;
45642;SDS011;31358;46.008;11.144;2022-10-16T07:55:34;62.85;;;35.35;;
45642;SDS011;31358;46.008;11.144;2022-10-16T07:58:00;60.33;;;35.50;;
45642;SDS011;31358;46.008;11.144;2022-10-16T08:00:26;60.53;;;34.80;;
45642;SDS011;31358;46.008;11.144;2022-10-16T08:02:52;58.08;;;34.22;;
45642;SDS011;31358;46.008;11.144;2022-10-16T08:05:17;60.03;;;35.67;;
45642;SDS011;31358;46.008;11.144;2022-10-16T08:07:48;63.08;;;36.50;;
45642;SDS011;31358;46.008;11.144;2022-10-16T08:10:17;60.88;;;34.58;;
45642;SDS011;31358;46.008;11.144;2022-10-16T08:12:44;60.75;;;36.65;;
45642;SDS011;31358;46.008;11.144;2022-10-16T08:15:10;59.15;;;35.08;;
45642;SDS011;31358;46.008;11.144;2022-10-16T08:17:36;57.33;;;33.42;;
45642;SDS011;31358;46.008;11.144;2022-10-16T08:20:02;62.63;;;35.33;;
45642;SDS011;31358;46.008;11.144;2022-10-16T08:22:28;57.15;;;33.67;;
45642;SDS011;31358;46.008;11.144;2022-10-16T08:24:54;58.05;;;34.63;;
45642;SDS011;31358;46.008;11.144;2022-10-16T08:27:19;56.63;;;35.10;;
45642;SDS011;31358;46.008;11.144;2022-10-16T08:29:45;58.25;;;37.00;;
45642;SDS011;31358;46.008;11.144;2022-10-16T08:32:10;57.88;;;36.00;;
45642;SDS011;31358;46.008;11.144;2022-10-16T08:34:36;56.90;;;34.35;;
45642;SDS011;31358;46.008;11.144;2022-10-16T08:37:02;58.60;;;36.53;;
45642;SDS011;31358;46.008;11.144;2022-10-16T08:39:27;58.97;;;36.70;;
45642;SDS011;31358;46.008;11.144;2022-10-16T08:47:23;58.05;;;34.72;;
45642;SDS011;31358;46.008;11.144;2022-10-16T08:50:13;55.70;;;34.40;;
45642;SDS011;31358;46.008;11.144;2022-10-16T08:52:53;60.88;;;34.65;;
45642;SDS011;31358;46.008;11.144;2022-10-16T08:55:27;59.08;;;33.83;;
45642;SDS011;31358;46.008;11.144;2022-10-16T08:58:18;62.88;;;34.55;;
45642;SDS011;31358;46.008;11.144;2022-10-16T09:00:45;53.55;;;33.58;;
45642;SDS011;31358;46.008;11.144;2022-10-16T09:03:17;57.95;;;34.45;;
45642;SDS011;31358;46.008;11.144;2022-10-16T09:12:02;58.55;;;32.85;;
45642;SDS011;31358;46.008;11.144;2022-10-16T09:22:55;59.10;;;34.22;;
45642;SDS011;31358;46.008;11.144;2022-10-16T09:25:28;58.10;;;34.25;;
45642;SDS011;31358;46.008;11.144;2022-10-16T09:27:53;61.00;;;33.33;;
45642;SDS011;31358;46.008;11.144;2022-10-16T09:30:20;55.22;;;32.00;;
45642;SDS011;31358;46.008;11.144;2022-10-16T09:32:48;51.47;;;32.22;;
45642;SDS011;31358;46.008;11.144;2022-10-16T09:35:17;56.55;;;32.03;;
45642;SDS011;31358;46.008;11.144;2022-10-16T09:37:48;56.92;;;32.47;;
45642;SDS011;31358;46.008;11.144;2022-10-16T09:40:29;61.90;;;35.92;;
45642;SDS011;31358;46.008;11.144;2022-10-16T09:43:02;58.33;;;34.72;;
45642;SDS011;31358;46.008;11.144;2022-10-16T09:45:42;56.75;;;34.75;;
45642;SDS011;31358;46.008;11.144;2022-10-16T09:48:18;55.58;;;34.55;;
45642;SDS011;31358;46.008;11.144;2022-10-16T09:50:55;51.30;;;31.38;;
45642;SDS011;31358;46.008;11.144;2022-10-16T09:53:26;60.40;;;35.05;;
45642;SDS011;31358;46.008;11.144;2022-10-16T09:56:05;54.53;;;34.40;;
45642;SDS011;31358;46.008;11.144;2022-10-16T09:58:31;57.40;;;34.05;;
45642;SDS011;31358;46.008;11.144;2022-10-16T10:00:58;62.63;;;35.92;;
45642;SDS011;31358;46.008;11.144;2022-10-16T10:03:35;59.50;;;35.28;;
45642;SDS011;31358;46.008;11.144;2022-10-16T10:06:06;58.28;;;34.47;;
45642;SDS011;31358;46.008;11.144;2022-10-16T10:08:56;57.00;;;33.35;;
45642;SDS011;31358;46.008;11.144;2022-10-16T10:11:52;60.40;;;34.97;;
45642;SDS011;31358;46.008;11.144;2022-10-16T10:14:39;57.75;;;35.70;;
45642;SDS011;31358;46.008;11.144;2022-10-16T10:19:41;57.55;;;34.03;;
45642;SDS011;31358;46.008;11.144;2022-10-16T10:23:00;59.00;;;34.13;;
45642;SDS011;31358;46.008;11.144;2022-10-16T10:46:32;51.93;;;32.00;;
45642;SDS011;31358;46.008;11.144;2022-10-16T10:49:09;61.50;;;34.40;;
45642;SDS011;31358;46.008;11.144;2022-10-16T10:54:38;54.05;;;31.83;;
45642;SDS011;31358;46.008;11.144;2022-10-16T10:57:28;51.20;;;32.35;;
45642;SDS011;31358;46.008;11.144;2022-10-16T11:00:06;54.55;;;32.13;;
45642;SDS011;31358;46.008;11.144;2022-10-16T11:05:59;55.20;;;32.38;;
45642;SDS011;31358;46.008;11.144;2022-10-16T11:09:00;48.75;;;28.52;;
45642;SDS011;31358;46.008;11.144;2022-10-16T11:11:40;53.78;;;31.77;;
45642;SDS011;31358;46.008;11.144;2022-10-16T11:14:20;51.72;;;31.30;;
45642;SDS011;31358;46.008;11.144;2022-10-16T11:24:52;48.30;;;29.73;;
45642;SDS011;31358;46.008;11.144;2022-10-16T11:30:02;43.42;;;27.55;;
45642;SDS011;31358;46.008;11.144;2022-10-16T11:32:32;50.28;;;28.60;;
45642;SDS011;31358;46.008;11.144;2022-10-16T11:35:15;48.72;;;30.80;;
45642;SDS011;31358;46.008;11.144;2022-10-16T11:37:55;46.80;;;28.67;;
45642;SDS011;31358;46.008;11.144;2022-10-16T11:40:25;46.30;;;27.85;;
45642;SDS011;31358;46.008;11.144;2022-10-16T11:42:57;47.38;;;26.95;;
45642;SDS011;31358;46.008;11.144;2022-10-16T11:53:46;38.00;;;19.83;;
45642;SDS011;31358;46.008;11.144;2022-10-16T11:56:16;33.13;;;20.95;;
45642;SDS011;31358;46.008;11.144;2022-10-16T11:58:52;26.60;;;18.25;;
45642;SDS011;31358;46.008;11.144;2022-10-16T12:09:05;35.50;;;22.77;;
45642;SDS011;31358;46.008;11.144;2022-10-16T12:11:55;34.97;;;22.45;;
45642;SDS011;31358;46.008;11.144;2022-10-16T12:14:33;35.05;;;23.67;;
45642;SDS011;31358;46.008;11.144;2022-10-16T12:17:02;36.30;;;22.70;;
45642;SDS011;31358;46.008;11.144;2022-10-16T12:19:57;35.58;;;21.67;;
45642;SDS011;31358;46.008;11.144;2022-10-16T12:22:54;39.25;;;22.67;;
45642;SDS011;31358;46.008;11.144;2022-10-16T12:25:27;33.92;;;21.50;;
45642;SDS011;31358;46.008;11.144;2022-10-16T12:27:57;29.08;;;17.63;;
45642;SDS011;31358;46.008;11.144;2022-10-16T12:30:23;28.55;;;17.85;;
45642;SDS011;31358;46.008;11.144;2022-10-16T12:32:54;31.80;;;18.17;;
45642;SDS011;31358;46.008;11.144;2022-10-16T12:35:23;24.95;;;17.45;;
45642;SDS011;31358;46.008;11.144;2022-10-16T12:38:04;22.75;;;13.50;;
45642;SDS011;31358;46.008;11.144;2022-10-16T12:40:32;14.60;;;9.80;;
45642;SDS011;31358;46.008;11.144;2022-10-16T12:45:45;19.70;;;11.82;;
45642;SDS011;31358;46.008;11.144;2022-10-16T12:48:19;23.13;;;14.50;;
45642;SDS011;31358;46.008;11.144;2022-10-16T12:50:46;28.27;;;17.77;;
45642;SDS011;31358;46.008;11.144;2022-10-16T12:53:20;25.33;;;16.13;;
45642;SDS011;31358;46.008;11.144;2022-10-16T12:56:00;28.15;;;16.00;;
45642;SDS011;31358;46.008;11.144;2022-10-16T12:58:46;27.60;;;17.02;;
45642;SDS011;31358;46.008;11.144;2022-10-16T13:01:32;23.45;;;15.40;;
45642;SDS011;31358;46.008;11.144;2022-10-16T13:06:50;24.55;;;14.73;;
45642;SDS011;31358;46.008;11.144;2022-10-16T13:20:18;21.10;;;13.88;;
45642;SDS011;31358;46.008;11.144;2022-10-16T13:23:13;19.05;;;12.05;;
45642;SDS011;31358;46.008;11.144;2022-10-16T13:28:27;19.60;;;13.07;;
45642;SDS011;31358;46.008;11.144;2022-10-16T13:30:56;21.67;;;13.13;;
45642;SDS011;31358;46.008;11.144;2022-10-16T13:36:04;19.08;;;10.50;;
45642;SDS011;31358;46.008;11.144;2022-10-16T13:38:31;18.95;;;10.40;;
45642;SDS011;31358;46.008;11.144;2022-10-16T13:40:59;19.10;;;11.85;;
45642;SDS011;31358;46.008;11.144;2022-10-16T13:43:37;19.75;;;12.90;;
45642;SDS011;31358;46.008;11.144;2022-10-16T13:46:15;21.85;;;13.20;;
45642;SDS011;31358;46.008;11.144;2022-10-16T13:48:58;22.52;;;14.07;;
45642;SDS011;31358;46.008;11.144;2022-10-16T13:51:25;22.00;;;13.80;;
45642;SDS011;31358;46.008;11.144;2022-10-16T13:53:51;21.02;;;14.35;;
45642;SDS011;31358;46.008;11.144;2022-10-16T13:56:21;23.80;;;15.43;;
45642;SDS011;31358;46.008;11.144;2022-10-16T13:59:06;21.92;;;15.23;;
45642;SDS011;31358;46.008;11.144;2022-10-16T14:01:47;27.27;;;17.35;;
45642;SDS011;31358;46.008;11.144;2022-10-16T14:04:14;30.48;;;17.30;;
45642;SDS011;31358;46.008;11.144;2022-10-16T14:06:41;29.85;;;17.10;;
45642;SDS011;31358;46.008;11.144;2022-10-16T14:09:28;29.23;;;18.10;;
45642;SDS011;31358;46.008;11.144;2022-10-16T14:12:03;30.70;;;17.38;;
45642;SDS011;31358;46.008;11.144;2022-10-16T14:14:57;30.13;;;17.60;;
45642;SDS011;31358;46.008;11.144;2022-10-16T14:17:32;30.23;;;19.00;;
45642;SDS011;31358;46.008;11.144;2022-10-16T14:20:00;33.20;;;19.25;;
45642;SDS011;31358;46.008;11.144;2022-10-16T14:22:33;31.23;;;18.83;;
45642;SDS011;31358;46.008;11.144;2022-10-16T14:24:59;29.25;;;19.60;;
45642;SDS011;31358;46.008;11.144;2022-10-16T14:27:29;31.05;;;19.83;;
45642;SDS011;31358;46.008;11.144;2022-10-16T14:32:52;32.25;;;19.85;;
45642;SDS011;31358;46.008;11.144;2022-10-16T14:35:25;30.88;;;20.23;;
45642;SDS011;31358;46.008;11.144;2022-10-16T14:37:54;33.42;;;22.58;;
45642;SDS011;31358;46.008;11.144;2022-10-16T14:40:23;43.35;;;20.85;;
45642;SDS011;31358;46.008;11.144;2022-10-16T14:42:57;34.83;;;21.42;;
45642;SDS011;31358;46.008;11.144;2022-10-16T14:45:24;33.00;;;21.08;;
45642;SDS011;31358;46.008;11.144;2022-10-16T14:48:14;38.22;;;22.52;;
45642;SDS011;31358;46.008;11.144;2022-10-16T14:50:41;38.95;;;24.15;;
45642;SDS011;31358;46.008;11.144;2022-10-16T14:53:13;38.90;;;24.17;;
45642;SDS011;31358;46.008;11.144;2022-10-16T14:55:39;54.05;;;28.38;;
45642;SDS011;31358;46.008;11.144;2022-10-16T14:58:13;42.08;;;26.35;;
45642;SDS011;31358;46.008;11.144;2022-10-16T15:00:45;41.17;;;24.02;;
45642;SDS011;31358;46.008;11.144;2022-10-16T15:03:11;45.10;;;31.40;;
45642;SDS011;31358;46.008;11.144;2022-10-16T15:05:37;45.60;;;29.55;;
45642;SDS011;31358;46.008;11.144;2022-10-16T15:08:03;41.45;;;25.80;;
45642;SDS011;31358;46.008;11.144;2022-10-16T15:10:32;45.55;;;27.48;;
45642;SDS011;31358;46.008;11.144;2022-10-16T15:13:02;44.70;;;25.77;;
45642;SDS011;31358;46.008;11.144;2022-10-16T15:15:39;52.13;;;29.08;;
45642;SDS011;31358;46.008;11.144;2022-10-16T15:18:07;48.35;;;28.90;;
45642;SDS011;31358;46.008;11.144;2022-10-16T15:20:34;66.80;;;35.40;;
45642;SDS011;31358;46.008;11.144;2022-10-16T15:23:02;51.33;;;30.52;;
45642;SDS011;31358;46.008;11.144;2022-10-16T15:28:08;46.50;;;26.65;;
45642;SDS011;31358;46.008;11.144;2022-10-16T15:30:35;36.25;;;22.42;;
45642;SDS011;31358;46.008;11.144;2022-10-16T15:33:01;37.88;;;21.88;;
45642;SDS011;31358;46.008;11.144;2022-10-16T15:35:28;24.10;;;15.60;;
45642;SDS011;31358;46.008;11.144;2022-10-16T15:37:54;27.42;;;15.10;;
45642;SDS011;31358;46.008;11.144;2022-10-16T15:40:20;19.58;;;12.07;;
45642;SDS011;31358;46.008;11.144;2022-10-16T15:42:46;28.13;;;18.17;;
45642;SDS011;31358;46.008;11.144;2022-10-16T15:45:12;21.10;;;13.32;;
45642;SDS011;31358;46.008;11.144;2022-10-16T15:47:38;35.22;;;20.90;;
45642;SDS011;31358;46.008;11.144;2022-10-16T15:50:06;32.53;;;19.13;;
45642;SDS011;31358;46.008;11.144;2022-10-16T15:52:34;25.30;;;14.32;;
45642;SDS011;31358;46.008;11.144;2022-10-16T15:54:59;20.17;;;12.82;;
45642;SDS011;31358;46.008;11.144;2022-10-16T15:57:27;20.60;;;12.63;;
45642;SDS011;31358;46.008;11.144;2022-10-16T15:59:54;20.95;;;12.68;;
45642;SDS011;31358;46.008;11.144;2022-10-16T16:02:20;18.50;;;13.05;;
45642;SDS011;31358;46.008;11.144;2022-10-16T16:04:45;27.42;;;13.73;;
45642;SDS011;31358;46.008;11.144;2022-10-16T16:07:11;22.50;;;12.82;;
45642;SDS011;31358;46.008;11.144;2022-10-16T16:09:37;22.42;;;13.10;;
45642;SDS011;31358;46.008;11.144;2022-10-16T16:12:02;19.85;;;12.45;;
45642;SDS011;31358;46.008;11.144;2022-10-16T16:14:28;22.75;;;12.23;;
45642;SDS011;31358;46.008;11.144;2022-10-16T16:16:54;19.02;;;12.25;;
45642;SDS011;31358;46.008;11.144;2022-10-16T16:19:20;23.88;;;13.63;;
45642;SDS011;31358;46.008;11.144;2022-10-16T16:21:47;23.73;;;13.85;;
45642;SDS011;31358;46.008;11.144;2022-10-16T16:24:13;22.48;;;13.93;;
45642;SDS011;31358;46.008;11.144;2022-10-16T16:26:38;21.98;;;13.85;;
45642;SDS011;31358;46.008;11.144;2022-10-16T16:29:08;24.90;;;15.63;;
45642;SDS011;31358;46.008;11.144;2022-10-16T16:31:38;30.25;;;14.38;;